Flight Track Log - Related Links

Times and Time Zones

All times are in EDT time to prevent confusion due to time zone crossing. See the EJA831 flight status page for this flight to view local times or setup timezone preferences in your user account.

Time Position Orientation Groundspeed Altitude Reporting Facility
EDT Latitude Longitude Course Direction KTS MPH feet Rate Location/Type
Sun 12:54:35 PM 40.9686 -85.1389 90° East 221 254 3,800  Level Chicago Center
Sun 12:55:37 PM 40.9731 -85.0431 86° East 256 295 7,800 3,484 Climbing Chicago Center
Sun 12:56:39 PM 40.9794 -84.9375 85° East 279 321 11,000 2,758 Climbing Chicago Center
Sun 12:57:41 PM 40.9850 -84.8242 86° East 302 348 13,500 2,613 Climbing Chicago Center
Sun 12:58:43 PM 40.9928 -84.6653 86° East 353 406 16,400 2,659 Climbing Chicago Center
Sun 12:59:09 PM 40.9969 -84.6056 85° East 346 398 17,400 1,814 Climbing Cleveland Center
Sun 01:00:00 PM 41.0000 -84.4764 90° East  Level FlightAware Approximate
Sun 01:00:09 PM 41.0039 -84.4631 86° East 367 422 19,000  Level Cleveland Center
Sun 01:01:09 PM 41.0108 -84.3203 86° East 386 444 20,500 1,455 Climbing Cleveland Center
Sun 01:01:48 PM 41.0122 -84.2394 89° East 391 450 21,400 1,485 Climbing Chicago Center
Sun 01:02:50 PM 41.0197 -84.0894 86° East 406 467 23,000 1,185 Climbing Chicago Center
Sun 01:03:09 PM 41.0242 -84.0236 85° East 397 457 23,000  Level Cleveland Center
Sun 01:04:09 PM 41.0286 -83.8725 88° East 407 468 23,000  Level Cleveland Center
Sun 01:05:09 PM 41.0350 -83.7214 87° East 407 468 23,000  Level Cleveland Center
Sun 01:06:09 PM 41.0408 -83.5839 87° East 407 468 23,000  Level Cleveland Center
Sun 01:07:09 PM 41.0467 -83.4328 87° East 407 468 23,000  Level Cleveland Center
Sun 01:08:09 PM 41.0422 -83.2811 92° East 407 468 23,000  Level Cleveland Center
Sun 01:09:09 PM 41.0122 -83.1342 105° East 402 463 23,000  Level Cleveland Center
Sun 01:10:09 PM 40.9864 -82.9764 102° East 402 463 23,000  Level Cleveland Center
Sun 01:11:09 PM 40.9622 -82.8297 102° East 397 457 23,000  Level Cleveland Center
Sun 01:12:09 PM 40.9378 -82.6858 103° East 397 457 23,000  Level Cleveland Center
Sun 01:13:09 PM 40.9133 -82.5450 103° East 397 457 23,000  Level Cleveland Center
Sun 01:14:09 PM 40.8886 -82.4014 103° East 397 457 23,000  Level Cleveland Center
Sun 01:15:09 PM 40.8636 -82.2553 103° East 397 457 23,000  Level Cleveland Center
Sun 01:16:09 PM 40.8386 -82.1117 103° East 397 457 23,000  Level Cleveland Center
Sun 01:17:09 PM 40.8447 -81.9608 87° East 397 457 23,000  Level Cleveland Center
Sun 01:18:09 PM 40.8486 -81.8128 88° East 402 463 23,000 -100 Level Cleveland Center
Sun 01:19:09 PM 40.8519 -81.6839 88° East 376 433 22,800 -1,100 Descending Cleveland Center
Sun 01:20:09 PM 40.8572 -81.5494 87° East 358 412 20,800 -2,000 Descending Cleveland Center
Sun 01:21:09 PM 40.8606 -81.4039 88° East 380 437 18,800 -1,950 Descending Cleveland Center
Sun 01:22:09 PM 40.8636 -81.2611 88° East 390 449 16,900 -1,950 Descending Cleveland Center
Sun 01:23:09 PM 40.8664 -81.1211 88° East 384 442 14,900 -1,800 Descending Cleveland Center
Sun 01:24:09 PM 40.8711 -80.9978 87° East 374 430 13,300 -1,850 Descending Cleveland Center
Sun 01:25:09 PM 40.8736 -80.8658 89° East 369 425 11,200 -1,650 Descending Cleveland Center
Sun 01:26:09 PM 40.8758 -80.7506 89° East 342 394 10,000 -600 Descending Cleveland Center
Sun 01:27:09 PM 40.8761 -80.6381 90° East 318 366 10,000  Level Cleveland Center
Sun 01:28:09 PM 40.8072 -80.5994 157° South 238 274 10,000  Level Cleveland Center
Sun 01:29:09 PM 40.7342 -80.5775 167° South 255 293 10,000 -2,050 Level Cleveland Center
Sun 01:30:09 PM 40.6656 -80.5558 167° South 267 307 5,900 -2,850 Descending Cleveland Center
Sun 01:31:09 PM 40.6028 -80.5394 169° South 257 296 4,300 -1,000 Descending Cleveland Center
Sun 01:32:09 PM 40.5383 -80.5122 162° South 246 283 3,900 -400 Descending Cleveland Center
Sun 01:34:00 PM 40.4997 -80.2819 143° Southeast  Level Estimated
Sun 01:41:00 PM 40.4915 -80.2329 143° Southeast  Level Estimated
Sun 01:42:00 PM 40.4915 -80.2329 143° Southeast  Level Estimated
Sun 01:43:00 PM 40.4915 -80.2329 143° Southeast  Level Estimated
Sun 01:44:00 PM 40.4915 -80.2329 143° Southeast  Level Estimated

Login

Don't have an account? Register now (free) for customized features, flight alerts, and more!